sensor_id;sensor_type;location;lat;lon;timestamp;pressure;altitude;pressure_sealevel;temperature;humidity
67803;BME280;54601;51.378;-1.342;2023-04-20T00:01:45;101035.61;;;20.20;27.16
67803;BME280;54601;51.378;-1.342;2023-04-20T00:04:10;101034.26;;;20.15;27.30
67803;BME280;54601;51.378;-1.342;2023-04-20T00:06:35;101036.87;;;20.25;27.06
67803;BME280;54601;51.378;-1.342;2023-04-20T00:09:01;101035.92;;;20.21;27.12
67803;BME280;54601;51.378;-1.342;2023-04-20T00:11:26;101033.50;;;19.47;27.47
67803;BME280;54601;51.378;-1.342;2023-04-20T00:13:51;101035.19;;;19.75;27.26
67803;BME280;54601;51.378;-1.342;2023-04-20T00:16:16;101031.76;;;19.74;27.22
67803;BME280;54601;51.378;-1.342;2023-04-20T00:18:41;101027.52;;;19.80;27.11
67803;BME280;54601;51.378;-1.342;2023-04-20T00:21:06;101025.56;;;19.85;27.12
67803;BME280;54601;51.378;-1.342;2023-04-20T00:23:31;101022.86;;;20.36;27.06
67803;BME280;54601;51.378;-1.342;2023-04-20T00:25:56;101023.63;;;20.08;27.12
67803;BME280;54601;51.378;-1.342;2023-04-20T00:28:21;101018.83;;;20.06;27.09
67803;BME280;54601;51.378;-1.342;2023-04-20T00:30:46;101021.08;;;19.86;27.03
67803;BME280;54601;51.378;-1.342;2023-04-20T00:33:11;101018.52;;;20.01;27.13
67803;BME280;54601;51.378;-1.342;2023-04-20T00:35:37;101018.68;;;20.23;27.16
67803;BME280;54601;51.378;-1.342;2023-04-20T00:38:02;101016.09;;;19.60;27.19
67803;BME280;54601;51.378;-1.342;2023-04-20T00:40:27;101013.88;;;19.80;26.98
67803;BME280;54601;51.378;-1.342;2023-04-20T00:42:52;101016.51;;;20.16;27.11
67803;BME280;54601;51.378;-1.342;2023-04-20T00:45:17;101015.43;;;19.95;27.14
67803;BME280;54601;51.378;-1.342;2023-04-20T00:47:42;101014.03;;;20.06;26.98
67803;BME280;54601;51.378;-1.342;2023-04-20T00:50:08;101013.08;;;19.91;27.11
67803;BME280;54601;51.378;-1.342;2023-04-20T00:52:33;101007.94;;;19.88;27.17
67803;BME280;54601;51.378;-1.342;2023-04-20T00:54:57;101006.21;;;19.93;27.12
67803;BME280;54601;51.378;-1.342;2023-04-20T00:57:23;101003.51;;;20.08;27.09
67803;BME280;54601;51.378;-1.342;2023-04-20T00:59:48;100998.61;;;20.20;26.94
67803;BME280;54601;51.378;-1.342;2023-04-20T01:02:13;100996.59;;;20.17;26.98
67803;BME280;54601;51.378;-1.342;2023-04-20T01:04:38;100990.56;;;19.69;26.87
67803;BME280;54601;51.378;-1.342;2023-04-20T01:07:03;100985.08;;;20.21;26.96
67803;BME280;54601;51.378;-1.342;2023-04-20T01:09:28;100982.48;;;19.55;27.11
67803;BME280;54601;51.378;-1.342;2023-04-20T01:11:53;100977.42;;;20.04;27.02
67803;BME280;54601;51.378;-1.342;2023-04-20T01:14:18;100972.18;;;19.77;27.10
67803;BME280;54601;51.378;-1.342;2023-04-20T01:16:43;100975.07;;;19.66;26.92
67803;BME280;54601;51.378;-1.342;2023-04-20T01:19:09;100972.39;;;19.86;26.85
67803;BME280;54601;51.378;-1.342;2023-04-20T01:21:39;100973.04;;;19.93;26.78
67803;BME280;54601;51.378;-1.342;2023-04-20T01:23:59;100969.81;;;19.83;26.92
67803;BME280;54601;51.378;-1.342;2023-04-20T01:26:24;100970.27;;;19.90;26.88
67803;BME280;54601;51.378;-1.342;2023-04-20T01:28:49;100968.35;;;19.81;26.87
67803;BME280;54601;51.378;-1.342;2023-04-20T01:31:14;100966.27;;;20.15;26.73
67803;BME280;54601;51.378;-1.342;2023-04-20T01:33:39;100962.39;;;19.92;26.67
67803;BME280;54601;51.378;-1.342;2023-04-20T01:36:06;100960.16;;;19.43;26.94
67803;BME280;54601;51.378;-1.342;2023-04-20T01:38:29;100957.71;;;19.78;27.03
67803;BME280;54601;51.378;-1.342;2023-04-20T01:40:54;100955.23;;;19.67;26.89
67803;BME280;54601;51.378;-1.342;2023-04-20T01:43:20;100950.49;;;19.81;26.97
67803;BME280;54601;51.378;-1.342;2023-04-20T01:45:45;100947.09;;;19.44;26.90
67803;BME280;54601;51.378;-1.342;2023-04-20T01:48:10;100947.03;;;19.68;26.89
67803;BME280;54601;51.378;-1.342;2023-04-20T01:50:35;100940.34;;;19.79;26.92
67803;BME280;54601;51.378;-1.342;2023-04-20T01:53:00;100939.42;;;19.64;26.92
67803;BME280;54601;51.378;-1.342;2023-04-20T01:55:25;100940.63;;;19.85;26.93
67803;BME280;54601;51.378;-1.342;2023-04-20T01:57:50;100942.10;;;19.84;26.93
67803;BME280;54601;51.378;-1.342;2023-04-20T02:00:16;100939.33;;;19.71;26.95
67803;BME280;54601;51.378;-1.342;2023-04-20T02:02:40;100937.57;;;19.54;26.83
67803;BME280;54601;51.378;-1.342;2023-04-20T02:05:06;100937.89;;;19.60;26.80
67803;BME280;54601;51.378;-1.342;2023-04-20T02:07:30;100939.69;;;19.79;26.84
67803;BME280;54601;51.378;-1.342;2023-04-20T02:09:55;100938.97;;;19.21;26.95
67803;BME280;54601;51.378;-1.342;2023-04-20T02:12:21;100942.31;;;19.88;26.73
67803;BME280;54601;51.378;-1.342;2023-04-20T02:14:46;100942.54;;;19.86;26.72
67803;BME280;54601;51.378;-1.342;2023-04-20T02:17:11;100940.24;;;19.78;26.75
67803;BME280;54601;51.378;-1.342;2023-04-20T02:19:36;100937.57;;;19.43;27.00
67803;BME280;54601;51.378;-1.342;2023-04-20T02:22:01;100938.39;;;19.39;26.91
67803;BME280;54601;51.378;-1.342;2023-04-20T02:24:26;100939.87;;;19.84;26.73
67803;BME280;54601;51.378;-1.342;2023-04-20T02:26:51;100938.14;;;19.82;26.67
67803;BME280;54601;51.378;-1.342;2023-04-20T02:29:16;100936.28;;;19.67;26.73
67803;BME280;54601;51.378;-1.342;2023-04-20T02:31:41;100936.71;;;19.51;27.07
67803;BME280;54601;51.378;-1.342;2023-04-20T02:34:06;100929.55;;;19.64;26.85
67803;BME280;54601;51.378;-1.342;2023-04-20T02:36:32;100927.89;;;19.48;26.74
67803;BME280;54601;51.378;-1.342;2023-04-20T02:38:57;100930.59;;;19.21;26.69
67803;BME280;54601;51.378;-1.342;2023-04-20T02:41:22;100926.05;;;19.60;26.86
67803;BME280;54601;51.378;-1.342;2023-04-20T02:43:47;100923.47;;;19.37;26.93
67803;BME280;54601;51.378;-1.342;2023-04-20T02:46:12;100925.52;;;19.66;26.71
67803;BME280;54601;51.378;-1.342;2023-04-20T02:48:37;100924.64;;;19.58;26.85
67803;BME280;54601;51.378;-1.342;2023-04-20T02:51:02;100925.75;;;19.55;26.84
67803;BME280;54601;51.378;-1.342;2023-04-20T02:53:27;100923.13;;;19.41;26.76
67803;BME280;54601;51.378;-1.342;2023-04-20T02:55:52;100926.03;;;19.64;26.72
67803;BME280;54601;51.378;-1.342;2023-04-20T02:58:18;100925.07;;;19.62;26.64
67803;BME280;54601;51.378;-1.342;2023-04-20T03:00:43;100925.43;;;19.24;26.86
67803;BME280;54601;51.378;-1.342;2023-04-20T03:03:08;100925.09;;;19.52;26.73
67803;BME280;54601;51.378;-1.342;2023-04-20T03:05:33;100928.49;;;19.03;27.04
67803;BME280;54601;51.378;-1.342;2023-04-20T03:07:58;100925.57;;;19.10;26.97
67803;BME280;54601;51.378;-1.342;2023-04-20T03:10:23;100928.08;;;19.47;26.97
67803;BME280;54601;51.378;-1.342;2023-04-20T03:12:48;100927.56;;;19.50;26.83
67803;BME280;54601;51.378;-1.342;2023-04-20T03:15:14;100926.78;;;19.57;26.76
67803;BME280;54601;51.378;-1.342;2023-04-20T03:17:39;100930.03;;;19.42;26.94
67803;BME280;54601;51.378;-1.342;2023-04-20T03:20:05;100926.13;;;19.52;26.88
67803;BME280;54601;51.378;-1.342;2023-04-20T03:22:29;100932.90;;;19.27;27.04
67803;BME280;54601;51.378;-1.342;2023-04-20T03:24:54;100936.68;;;19.50;26.79
67803;BME280;54601;51.378;-1.342;2023-04-20T03:27:19;100938.77;;;19.36;27.01
67803;BME280;54601;51.378;-1.342;2023-04-20T03:29:44;100939.20;;;19.35;27.03
67803;BME280;54601;51.378;-1.342;2023-04-20T03:32:09;100939.32;;;19.32;27.07
67803;BME280;54601;51.378;-1.342;2023-04-20T03:34:34;100942.64;;;19.46;26.79
67803;BME280;54601;51.378;-1.342;2023-04-20T03:37:00;100941.31;;;19.26;26.80
67803;BME280;54601;51.378;-1.342;2023-04-20T03:39:25;100940.66;;;19.54;26.75
67803;BME280;54601;51.378;-1.342;2023-04-20T03:41:50;100940.88;;;19.15;27.01
67803;BME280;54601;51.378;-1.342;2023-04-20T03:44:15;100938.00;;;19.19;27.08
67803;BME280;54601;51.378;-1.342;2023-04-20T03:46:40;100938.87;;;18.93;27.26
67803;BME280;54601;51.378;-1.342;2023-04-20T03:49:05;100936.90;;;18.77;27.45
67803;BME280;54601;51.378;-1.342;2023-04-20T03:51:30;100936.37;;;18.59;27.63
67803;BME280;54601;51.378;-1.342;2023-04-20T03:53:55;100934.76;;;18.82;27.39
67803;BME280;54601;51.378;-1.342;2023-04-20T03:56:20;100936.81;;;18.45;27.73
67803;BME280;54601;51.378;-1.342;2023-04-20T03:58:46;100939.26;;;18.58;27.63
67803;BME280;54601;51.378;-1.342;2023-04-20T04:01:11;100939.68;;;18.53;27.87
67803;BME280;54601;51.378;-1.342;2023-04-20T04:03:36;100935.38;;;18.33;28.05
67803;BME280;54601;51.378;-1.342;2023-04-20T04:06:01;100931.57;;;17.88;28.20
67803;BME280;54601;51.378;-1.342;2023-04-20T04:08:26;100933.79;;;19.14;27.46
67803;BME280;54601;51.378;-1.342;2023-04-20T04:10:51;100935.09;;;19.13;27.42
67803;BME280;54601;51.378;-1.342;2023-04-20T04:13:16;100937.13;;;19.08;27.53
67803;BME280;54601;51.378;-1.342;2023-04-20T04:15:41;100938.63;;;18.88;27.61
67803;BME280;54601;51.378;-1.342;2023-04-20T04:18:06;100941.34;;;18.84;27.46
67803;BME280;54601;51.378;-1.342;2023-04-20T04:20:31;100939.07;;;19.15;27.39
67803;BME280;54601;51.378;-1.342;2023-04-20T04:22:56;100940.65;;;19.12;27.21
67803;BME280;54601;51.378;-1.342;2023-04-20T04:25:22;100938.83;;;19.37;27.17
67803;BME280;54601;51.378;-1.342;2023-04-20T04:27:47;100937.47;;;19.47;27.10
67803;BME280;54601;51.378;-1.342;2023-04-20T04:30:12;100937.59;;;19.30;27.07
67803;BME280;54601;51.378;-1.342;2023-04-20T04:32:37;100937.70;;;19.37;27.16
67803;BME280;54601;51.378;-1.342;2023-04-20T04:35:02;100937.64;;;19.61;26.94
67803;BME280;54601;51.378;-1.342;2023-04-20T04:37:27;100936.19;;;19.51;27.03
67803;BME280;54601;51.378;-1.342;2023-04-20T04:39:52;100942.17;;;19.43;27.13
67803;BME280;54601;51.378;-1.342;2023-04-20T04:42:17;100940.67;;;19.52;27.12
67803;BME280;54601;51.378;-1.342;2023-04-20T04:44:42;100938.64;;;18.92;27.63
67803;BME280;54601;51.378;-1.342;2023-04-20T04:47:07;100944.36;;;19.68;27.40
67803;BME280;54601;51.378;-1.342;2023-04-20T04:49:32;100946.31;;;19.17;27.43
67803;BME280;54601;51.378;-1.342;2023-04-20T04:51:57;100944.84;;;18.91;27.46
67803;BME280;54601;51.378;-1.342;2023-04-20T04:54:23;100947.52;;;19.41;27.48
67803;BME280;54601;51.378;-1.342;2023-04-20T04:56:48;100948.09;;;19.05;27.59
67803;BME280;54601;51.378;-1.342;2023-04-20T04:59:13;100953.91;;;19.62;27.25
67803;BME280;54601;51.378;-1.342;2023-04-20T05:01:38;100952.89;;;18.68;27.95
67803;BME280;54601;51.378;-1.342;2023-04-20T05:04:03;100955.64;;;18.88;27.74
67803;BME280;54601;51.378;-1.342;2023-04-20T05:06:28;100957.37;;;18.73;27.67
67803;BME280;54601;51.378;-1.342;2023-04-20T05:08:53;100957.02;;;19.13;27.53
67803;BME280;54601;51.378;-1.342;2023-04-20T05:11:19;100955.81;;;19.20;27.46
67803;BME280;54601;51.378;-1.342;2023-04-20T05:13:44;100958.69;;;18.91;27.77
67803;BME280;54601;51.378;-1.342;2023-04-20T05:16:09;100961.13;;;18.55;28.10
67803;BME280;54601;51.378;-1.342;2023-04-20T05:18:34;100961.67;;;18.51;28.17
67803;BME280;54601;51.378;-1.342;2023-04-20T05:20:59;100965.88;;;18.66;27.98
67803;BME280;54601;51.378;-1.342;2023-04-20T05:23:24;100965.12;;;19.05;27.64
67803;BME280;54601;51.378;-1.342;2023-04-20T05:25:49;100967.17;;;18.73;27.96
67803;BME280;54601;51.378;-1.342;2023-04-20T05:28:14;100965.22;;;19.15;27.64
67803;BME280;54601;51.378;-1.342;2023-04-20T05:30:39;100967.97;;;18.58;28.27
67803;BME280;54601;51.378;-1.342;2023-04-20T05:33:05;100965.01;;;17.54;29.25
67803;BME280;54601;51.378;-1.342;2023-04-20T05:35:30;100964.94;;;17.60;29.68
67803;BME280;54601;51.378;-1.342;2023-04-20T05:37:55;100964.00;;;17.52;29.99
67803;BME280;54601;51.378;-1.342;2023-04-20T05:40:20;100964.80;;;17.72;30.02
67803;BME280;54601;51.378;-1.342;2023-04-20T05:42:45;100967.89;;;17.68;30.14
67803;BME280;54601;51.378;-1.342;2023-04-20T05:45:10;100967.30;;;18.07;29.76
67803;BME280;54601;51.378;-1.342;2023-04-20T05:47:36;100970.68;;;18.72;29.12
67803;BME280;54601;51.378;-1.342;2023-04-20T05:50:01;100973.17;;;18.63;29.71
67803;BME280;54601;51.378;-1.342;2023-04-20T05:52:26;100972.68;;;18.86;29.38
67803;BME280;54601;51.378;-1.342;2023-04-20T05:54:52;100971.30;;;19.15;29.15
67803;BME280;54601;51.378;-1.342;2023-04-20T05:57:16;100974.34;;;18.78;29.41
67803;BME280;54601;51.378;-1.342;2023-04-20T05:59:41;100972.33;;;18.71;29.51
67803;BME280;54601;51.378;-1.342;2023-04-20T06:02:06;100971.40;;;18.85;29.61
67803;BME280;54601;51.378;-1.342;2023-04-20T06:04:32;100971.58;;;18.23;29.87
67803;BME280;54601;51.378;-1.342;2023-04-20T06:06:57;100970.31;;;18.63;29.76
67803;BME280;54601;51.378;-1.342;2023-04-20T06:09:22;100969.98;;;18.41;29.90
67803;BME280;54601;51.378;-1.342;2023-04-20T06:11:47;100968.55;;;17.87;30.66
67803;BME280;54601;51.378;-1.342;2023-04-20T06:14:12;100966.07;;;17.88;30.63
67803;BME280;54601;51.378;-1.342;2023-04-20T06:16:37;100968.03;;;16.85;31.68
67803;BME280;54601;51.378;-1.342;2023-04-20T06:19:02;100969.08;;;16.97;31.88
67803;BME280;54601;51.378;-1.342;2023-04-20T06:21:28;100968.53;;;17.05;31.83
67803;BME280;54601;51.378;-1.342;2023-04-20T06:23:53;100967.14;;;17.24;31.53
67803;BME280;54601;51.378;-1.342;2023-04-20T06:26:18;100964.81;;;17.88;30.92
67803;BME280;54601;51.378;-1.342;2023-04-20T06:28:43;100967.28;;;17.78;31.04
67803;BME280;54601;51.378;-1.342;2023-04-20T06:31:08;100966.89;;;17.84;31.23
67803;BME280;54601;51.378;-1.342;2023-04-20T06:33:33;100968.68;;;17.61;31.69
67803;BME280;54601;51.378;-1.342;2023-04-20T06:35:58;100967.05;;;17.80;31.47
67803;BME280;54601;51.378;-1.342;2023-04-20T06:38:24;100964.86;;;17.80;31.47
67803;BME280;54601;51.378;-1.342;2023-04-20T06:40:48;100963.65;;;17.73;31.50
67803;BME280;54601;51.378;-1.342;2023-04-20T06:43:14;100965.78;;;17.78;31.42
67803;BME280;54601;51.378;-1.342;2023-04-20T06:45:39;100964.01;;;17.96;30.94
67803;BME280;54601;51.378;-1.342;2023-04-20T06:48:04;100963.07;;;17.69;30.97
67803;BME280;54601;51.378;-1.342;2023-04-20T06:50:29;100963.09;;;18.06;30.83
67803;BME280;54601;51.378;-1.342;2023-04-20T06:52:54;100964.24;;;18.27;30.58
67803;BME280;54601;51.378;-1.342;2023-04-20T06:55:19;100963.40;;;18.25;30.60
67803;BME280;54601;51.378;-1.342;2023-04-20T06:57:44;100966.31;;;18.44;30.36
67803;BME280;54601;51.378;-1.342;2023-04-20T07:00:11;100964.48;;;18.97;30.00
67803;BME280;54601;51.378;-1.342;2023-04-20T07:02:41;100966.07;;;18.95;29.74
67803;BME280;54601;51.378;-1.342;2023-04-20T07:04:59;100961.80;;;18.73;29.71
67803;BME280;54601;51.378;-1.342;2023-04-20T07:07:24;100957.15;;;18.71;29.78
67803;BME280;54601;51.378;-1.342;2023-04-20T07:09:49;100959.70;;;19.33;29.40
67803;BME280;54601;51.378;-1.342;2023-04-20T07:12:14;100956.19;;;19.31;29.13
67803;BME280;54601;51.378;-1.342;2023-04-20T07:14:40;100957.61;;;19.78;28.68
67803;BME280;54601;51.378;-1.342;2023-04-20T07:17:05;100956.52;;;18.70;29.65
67803;BME280;54601;51.378;-1.342;2023-04-20T07:19:30;100951.85;;;19.50;29.02
67803;BME280;54601;51.378;-1.342;2023-04-20T07:21:55;100949.31;;;19.73;28.83
67803;BME280;54601;51.378;-1.342;2023-04-20T07:24:20;100947.06;;;20.17;28.36
67803;BME280;54601;51.378;-1.342;2023-04-20T07:26:45;100948.97;;;20.46;28.04
67803;BME280;54601;51.378;-1.342;2023-04-20T07:29:10;100943.47;;;20.47;28.01
67803;BME280;54601;51.378;-1.342;2023-04-20T07:31:35;100941.05;;;20.56;27.92
67803;BME280;54601;51.378;-1.342;2023-04-20T07:34:00;100938.64;;;20.70;27.81
67803;BME280;54601;51.378;-1.342;2023-04-20T07:36:25;100940.49;;;20.80;27.51
67803;BME280;54601;51.378;-1.342;2023-04-20T07:38:50;100943.89;;;21.14;27.37
67803;BME280;54601;51.378;-1.342;2023-04-20T07:41:15;100941.76;;;21.08;27.40
67803;BME280;54601;51.378;-1.342;2023-04-20T07:43:40;100942.16;;;20.74;27.30
67803;BME280;54601;51.378;-1.342;2023-04-20T07:46:06;100939.77;;;21.23;27.26
67803;BME280;54601;51.378;-1.342;2023-04-20T07:48:32;100940.30;;;21.04;27.24
67803;BME280;54601;51.378;-1.342;2023-04-20T07:50:56;100943.73;;;21.01;27.27
67803;BME280;54601;51.378;-1.342;2023-04-20T07:53:21;100950.73;;;20.84;27.23
67803;BME280;54601;51.378;-1.342;2023-04-20T07:55:46;100943.38;;;20.95;27.12
67803;BME280;54601;51.378;-1.342;2023-04-20T07:58:13;100944.10;;;21.00;27.09
67803;BME280;54601;51.378;-1.342;2023-04-20T08:00:38;100945.40;;;21.07;27.06
67803;BME280;54601;51.378;-1.342;2023-04-20T08:03:04;100942.60;;;21.17;26.95
67803;BME280;54601;51.378;-1.342;2023-04-20T08:05:30;100942.69;;;21.19;26.97
67803;BME280;54601;51.378;-1.342;2023-04-20T08:07:56;100943.71;;;21.26;26.91
67803;BME280;54601;51.378;-1.342;2023-04-20T08:10:22;100938.43;;;21.25;26.97
67803;BME280;54601;51.378;-1.342;2023-04-20T08:12:48;100943.80;;;21.32;26.91
67803;BME280;54601;51.378;-1.342;2023-04-20T08:15:14;100943.91;;;21.28;26.95
67803;BME280;54601;51.378;-1.342;2023-04-20T08:17:40;100941.97;;;21.83;26.82
67803;BME280;54601;51.378;-1.342;2023-04-20T08:20:07;100941.78;;;21.41;26.82
67803;BME280;54601;51.378;-1.342;2023-04-20T08:22:32;100942.16;;;21.53;26.75
67803;BME280;54601;51.378;-1.342;2023-04-20T08:24:58;100944.02;;;21.48;26.75
67803;BME280;54601;51.378;-1.342;2023-04-20T08:27:24;100944.60;;;21.60;26.70
67803;BME280;54601;51.378;-1.342;2023-04-20T08:29:49;100946.68;;;21.65;26.68
67803;BME280;54601;51.378;-1.342;2023-04-20T08:32:15;100937.13;;;21.72;26.68
67803;BME280;54601;51.378;-1.342;2023-04-20T08:34:41;100936.37;;;21.73;26.61
67803;BME280;54601;51.378;-1.342;2023-04-20T08:37:07;100935.12;;;21.75;26.65
67803;BME280;54601;51.378;-1.342;2023-04-20T08:39:33;100934.24;;;21.76;26.59
67803;BME280;54601;51.378;-1.342;2023-04-20T08:41:59;100932.07;;;21.84;26.52
67803;BME280;54601;51.378;-1.342;2023-04-20T08:44:25;100931.56;;;21.82;26.57
67803;BME280;54601;51.378;-1.342;2023-04-20T08:46:51;100930.32;;;21.91;26.54
67803;BME280;54601;51.378;-1.342;2023-04-20T08:49:18;100925.34;;;21.63;26.52
67803;BME280;54601;51.378;-1.342;2023-04-20T08:51:44;100928.82;;;21.71;26.46
67803;BME280;54601;51.378;-1.342;2023-04-20T08:54:10;100925.63;;;21.76;26.41
67803;BME280;54601;51.378;-1.342;2023-04-20T08:56:36;100927.85;;;22.09;26.41
67803;BME280;54601;51.378;-1.342;2023-04-20T08:59:02;100923.94;;;22.11;26.37
67803;BME280;54601;51.378;-1.342;2023-04-20T09:01:27;100921.20;;;21.83;26.36
67803;BME280;54601;51.378;-1.342;2023-04-20T09:03:53;100923.08;;;21.93;26.35
67803;BME280;54601;51.378;-1.342;2023-04-20T09:06:19;100921.39;;;22.17;26.36
67803;BME280;54601;51.378;-1.342;2023-04-20T09:08:45;100921.34;;;22.19;26.28
67803;BME280;54601;51.378;-1.342;2023-04-20T09:11:19;100916.51;;;22.25;26.30
67803;BME280;54601;51.378;-1.342;2023-04-20T09:13:37;100914.49;;;22.27;26.26
67803;BME280;54601;51.378;-1.342;2023-04-20T09:16:09;100908.28;;;22.27;26.23
67803;BME280;54601;51.378;-1.342;2023-04-20T09:18:29;100906.90;;;22.32;26.22
67803;BME280;54601;51.378;-1.342;2023-04-20T09:20:55;100901.14;;;22.36;26.18
67803;BME280;54601;51.378;-1.342;2023-04-20T09:23:20;100895.92;;;22.11;26.18
67803;BME280;54601;51.378;-1.342;2023-04-20T09:25:50;100899.17;;;22.09;26.17
67803;BME280;54601;51.378;-1.342;2023-04-20T09:28:13;100891.29;;;22.14;26.17
67803;BME280;54601;51.378;-1.342;2023-04-20T09:30:40;100887.37;;;22.13;26.12
67803;BME280;54601;51.378;-1.342;2023-04-20T09:33:05;100882.55;;;22.15;26.15
67803;BME280;54601;51.378;-1.342;2023-04-20T09:35:30;100884.63;;;22.21;26.11
67803;BME280;54601;51.378;-1.342;2023-04-20T09:37:56;100876.25;;;22.51;26.12
67803;BME280;54601;51.378;-1.342;2023-04-20T09:40:24;100878.16;;;22.22;26.11
67803;BME280;54601;51.378;-1.342;2023-04-20T09:42:49;100873.63;;;22.27;26.09
67803;BME280;54601;51.378;-1.342;2023-04-20T09:45:14;100874.81;;;22.28;26.07
67803;BME280;54601;51.378;-1.342;2023-04-20T09:47:41;100872.10;;;22.29;26.05
67803;BME280;54601;51.378;-1.342;2023-04-20T09:50:14;100863.38;;;22.30;26.10
67803;BME280;54601;51.378;-1.342;2023-04-20T09:52:34;100872.06;;;22.36;26.02
67803;BME280;54601;51.378;-1.342;2023-04-20T09:54:58;100867.94;;;22.63;25.99
67803;BME280;54601;51.378;-1.342;2023-04-20T09:57:24;100861.84;;;22.39;26.05
67803;BME280;54601;51.378;-1.342;2023-04-20T09:59:50;100859.09;;;22.36;26.07
67803;BME280;54601;51.378;-1.342;2023-04-20T10:02:16;100858.00;;;22.15;26.02
67803;BME280;54601;51.378;-1.342;2023-04-20T10:07:08;100848.17;;;22.43;25.96
67803;BME280;54601;51.378;-1.342;2023-04-20T10:09:33;100857.69;;;22.43;25.89
67803;BME280;54601;51.378;-1.342;2023-04-20T10:12:04;100847.27;;;22.75;25.90
67803;BME280;54601;51.378;-1.342;2023-04-20T10:14:25;100844.73;;;22.44;25.87
67803;BME280;54601;51.378;-1.342;2023-04-20T10:16:58;100836.71;;;22.46;25.82
67803;BME280;54601;51.378;-1.342;2023-04-20T10:19:17;100837.23;;;22.48;25.86
67803;BME280;54601;51.378;-1.342;2023-04-20T10:21:46;100828.94;;;22.25;25.80
67803;BME280;54601;51.378;-1.342;2023-04-20T10:24:09;100825.82;;;22.42;25.77
67803;BME280;54601;51.378;-1.342;2023-04-20T10:26:36;100834.61;;;22.45;25.95
67803;BME280;54601;51.378;-1.342;2023-04-20T10:29:01;100828.86;;;22.25;25.87
67803;BME280;54601;51.378;-1.342;2023-04-20T10:31:34;100820.86;;;22.47;25.83
67803;BME280;54601;51.378;-1.342;2023-04-20T10:33:55;100813.90;;;22.48;25.88
67803;BME280;54601;51.378;-1.342;2023-04-20T10:36:25;100822.56;;;22.23;25.87
67803;BME280;54601;51.378;-1.342;2023-04-20T10:38:45;100813.29;;;22.47;25.78
67803;BME280;54601;51.378;-1.342;2023-04-20T10:41:12;100809.86;;;22.48;25.78
67803;BME280;54601;51.378;-1.342;2023-04-20T10:43:37;100801.56;;;22.45;25.87
67803;BME280;54601;51.378;-1.342;2023-04-20T10:48:28;100789.14;;;22.48;25.75
67803;BME280;54601;51.378;-1.342;2023-04-20T10:50:54;100784.29;;;22.26;25.75
67803;BME280;54601;51.378;-1.342;2023-04-20T10:53:21;100782.06;;;22.24;25.79
67803;BME280;54601;51.378;-1.342;2023-04-20T10:55:46;100782.32;;;22.43;25.74
67803;BME280;54601;51.378;-1.342;2023-04-20T10:58:20;100780.44;;;22.42;25.74
67803;BME280;54601;51.378;-1.342;2023-04-20T11:00:38;100779.34;;;22.23;25.68
67803;BME280;54601;51.378;-1.342;2023-04-20T11:03:04;100768.07;;;22.19;25.76
67803;BME280;54601;51.378;-1.342;2023-04-20T11:05:30;100771.07;;;22.39;25.56
67803;BME280;54601;51.378;-1.342;2023-04-20T11:07:57;100761.78;;;22.70;25.57
67803;BME280;54601;51.378;-1.342;2023-04-20T11:10:23;100760.80;;;22.38;25.75
67803;BME280;54601;51.378;-1.342;2023-04-20T11:12:47;100754.07;;;22.18;25.60
67803;BME280;54601;51.378;-1.342;2023-04-20T11:15:13;100743.00;;;22.39;25.63
67803;BME280;54601;51.378;-1.342;2023-04-20T11:17:39;100747.34;;;22.67;25.68
67803;BME280;54601;51.378;-1.342;2023-04-20T11:20:07;100751.34;;;22.63;25.72
67803;BME280;54601;51.378;-1.342;2023-04-20T11:22:31;100745.80;;;22.37;25.62
67803;BME280;54601;51.378;-1.342;2023-04-20T11:25:02;100740.57;;;22.10;25.57
67803;BME280;54601;51.378;-1.342;2023-04-20T11:27:23;100737.52;;;22.09;25.69
67803;BME280;54601;51.378;-1.342;2023-04-20T11:29:54;100735.82;;;22.09;25.63
67803;BME280;54601;51.378;-1.342;2023-04-20T11:32:17;100737.28;;;21.99;25.55
67803;BME280;54601;51.378;-1.342;2023-04-20T11:34:40;100731.95;;;22.28;25.71
67803;BME280;54601;51.378;-1.342;2023-04-20T11:37:07;100730.95;;;22.56;25.69
67803;BME280;54601;51.378;-1.342;2023-04-20T11:39:32;100726.81;;;22.30;25.69
67803;BME280;54601;51.378;-1.342;2023-04-20T11:41:58;100730.24;;;22.55;25.62
67803;BME280;54601;51.378;-1.342;2023-04-20T11:44:24;100728.43;;;22.26;25.63
67803;BME280;54601;51.378;-1.342;2023-04-20T11:46:50;100730.90;;;22.37;25.64
67803;BME280;54601;51.378;-1.342;2023-04-20T11:49:15;100725.04;;;22.17;25.63
67803;BME280;54601;51.378;-1.342;2023-04-20T11:51:41;100720.11;;;22.22;25.76
67803;BME280;54601;51.378;-1.342;2023-04-20T11:54:07;100708.06;;;21.87;25.59
67803;BME280;54601;51.378;-1.342;2023-04-20T11:56:33;100709.89;;;21.88;25.66
67803;BME280;54601;51.378;-1.342;2023-04-20T11:58:59;100712.41;;;21.94;25.49
67803;BME280;54601;51.378;-1.342;2023-04-20T12:01:24;100709.16;;;21.87;25.64
67803;BME280;54601;51.378;-1.342;2023-04-20T12:03:50;100708.64;;;22.19;25.38
67803;BME280;54601;51.378;-1.342;2023-04-20T12:06:16;100709.38;;;22.01;25.62
67803;BME280;54601;51.378;-1.342;2023-04-20T12:08:42;100695.13;;;22.05;25.62
67803;BME280;54601;51.378;-1.342;2023-04-20T12:11:08;100697.81;;;22.41;25.61
67803;BME280;54601;51.378;-1.342;2023-04-20T12:13:34;100697.79;;;22.29;25.58
67803;BME280;54601;51.378;-1.342;2023-04-20T12:16:00;100700.42;;;22.00;25.65
67803;BME280;54601;51.378;-1.342;2023-04-20T12:18:26;100698.31;;;22.02;25.51
67803;BME280;54601;51.378;-1.342;2023-04-20T12:20:52;100703.90;;;22.31;25.53
67803;BME280;54601;51.378;-1.342;2023-04-20T12:23:18;100700.88;;;22.14;25.65
67803;BME280;54601;51.378;-1.342;2023-04-20T12:25:44;100698.83;;;21.85;25.64
67803;BME280;54601;51.378;-1.342;2023-04-20T12:28:10;100698.29;;;22.00;25.51
67803;BME280;54601;51.378;-1.342;2023-04-20T12:30:36;100698.84;;;22.20;25.54
67803;BME280;54601;51.378;-1.342;2023-04-20T12:33:02;100691.68;;;21.92;25.53
67803;BME280;54601;51.378;-1.342;2023-04-20T12:35:27;100695.61;;;22.22;25.60